Time;durP1;ratioP1;P1;durP2;ratioP2;P2;SDS_P1;SDS_P2;PMS_P1;PMS_P2;Temp;Humidity;BMP_temperature;BMP_pressure;BME280_temperature;BME280_humidity;BME280_pressure;Samples;Min_cycle;Max_cycle;Signal;HPM_P1;HPM_P2
2023/03/10 00:02:14;;;;;;;1.75;0.57;;;11.50;99.90;;;;;;4970558;28;20022;-73
2023/03/10 00:04:39;;;;;;;1.50;0.50;;;11.50;99.90;;;;;;4977308;28;20108;-73
2023/03/10 00:07:05;;;;;;;1.85;0.50;;;11.50;99.90;;;;;;4988514;28;20034;-73
2023/03/10 00:09:30;;;;;;;2.03;0.50;;;11.50;99.90;;;;;;4982411;28;20026;-73
2023/03/10 00:11:56;;;;;;;1.08;0.63;;;11.50;99.90;;;;;;4985142;28;20025;-73
2023/03/10 00:14:22;;;;;;;0.82;0.30;;;11.50;99.90;;;;;;4961283;28;20099;-73
2023/03/10 00:16:47;;;;;;;0.73;0.38;;;11.50;99.90;;;;;;4972345;28;20109;-73
2023/03/10 00:19:13;;;;;;;1.77;0.40;;;11.50;99.90;;;;;;4979293;28;20072;-73
2023/03/10 00:21:39;;;;;;;1.38;0.50;;;11.50;99.90;;;;;;4966810;28;20039;-73
2023/03/10 00:24:04;;;;;;;0.63;0.38;;;11.40;99.90;;;;;;4986099;28;20455;-73
2023/03/10 00:26:30;;;;;;;0.40;0.30;;;11.40;99.90;;;;;;4959865;28;20526;-76
2023/03/10 00:28:56;;;;;;;0.45;0.22;;;11.40;99.90;;;;;;4989856;28;20463;-73
2023/03/10 00:31:23;;;;;;;0.93;0.32;;;11.40;99.90;;;;;;4962781;28;20044;-73
2023/03/10 00:33:49;;;;;;;2.08;0.30;;;11.40;99.90;;;;;;4965049;28;20073;-74
2023/03/10 00:36:21;;;;;;;0.77;0.20;;;11.30;99.90;;;;;;4969978;28;20030;-74
2023/03/10 00:38:48;;;;;;;1.30;0.50;;;11.30;99.90;;;;;;4989823;28;20064;-74
2023/03/10 00:41:23;;;;;;;0.90;0.40;;;11.20;99.90;;;;;;4979253;28;20084;-73
2023/03/10 00:43:49;;;;;;;0.80;0.40;;;11.20;99.90;;;;;;4982437;28;20018;-74
2023/03/10 00:46:14;;;;;;;1.33;0.30;;;11.10;99.90;;;;;;4986486;28;20548;-73
2023/03/10 00:48:40;;;;;;;0.98;0.50;;;11.10;99.90;;;;;;4959602;28;20150;-73
2023/03/10 00:51:06;;;;;;;0.90;0.30;;;11.10;99.90;;;;;;4987876;28;20030;-74
2023/03/10 00:53:33;;;;;;;0.73;0.50;;;11.10;99.90;;;;;;4982187;28;20025;-74
2023/03/10 00:56:14;;;;;;;2.92;0.40;;;11.00;99.90;;;;;;4980170;28;20202;-75
2023/03/10 00:58:41;;;;;;;2.08;0.52;;;10.90;99.90;;;;;;4972079;28;20030;-73
2023/03/10 01:01:17;;;;;;;0.82;0.40;;;10.90;99.90;;;;;;4977732;28;20414;-73
2023/03/10 01:03:43;;;;;;;0.60;0.30;;;10.90;99.90;;;;;;4983402;28;20023;-77
2023/03/10 01:06:09;;;;;;;1.65;0.40;;;10.90;99.90;;;;;;4969189;28;20038;-74
2023/03/10 01:08:35;;;;;;;2.03;0.50;;;10.80;99.90;;;;;;4976132;28;20057;-75
2023/03/10 01:11:01;;;;;;;2.08;0.40;;;10.80;99.90;;;;;;4975284;28;20026;-75
2023/03/10 01:13:26;;;;;;;2.25;0.55;;;10.70;99.90;;;;;;4976285;28;20026;-76
2023/03/10 01:15:52;;;;;;;1.38;0.50;;;10.80;99.90;;;;;;4976732;28;20050;-75
2023/03/10 01:18:19;;;;;;;0.95;0.38;;;10.70;99.90;;;;;;4992690;28;20026;-75
2023/03/10 01:20:45;;;;;;;0.50;0.30;;;10.70;99.90;;;;;;4976011;28;20064;-75
2023/03/10 01:23:21;;;;;;;2.45;0.55;;;10.70;99.90;;;;;;4975375;28;20057;-75
2023/03/10 01:25:47;;;;;;;1.48;0.65;;;10.70;99.90;;;;;;4993350;28;20163;-75
2023/03/10 01:28:14;;;;;;;0.80;0.40;;;10.60;99.90;;;;;;4975343;28;20030;-75
2023/03/10 01:30:40;;;;;;;2.33;0.50;;;10.60;99.90;;;;;;4993281;28;20102;-75
2023/03/10 01:33:06;;;;;;;0.50;0.40;;;10.60;99.90;;;;;;4975213;28;20026;-75
2023/03/10 01:35:32;;;;;;;0.80;0.65;;;10.60;99.90;;;;;;4975523;28;20361;-75
2023/03/10 01:37:58;;;;;;;0.93;0.43;;;10.50;99.90;;;;;;4993056;28;20029;-75
2023/03/10 01:40:25;;;;;;;0.65;0.40;;;10.60;99.90;;;;;;4975042;28;20026;-75
2023/03/10 01:42:52;;;;;;;0.55;0.40;;;10.50;99.90;;;;;;4975609;28;20064;-75
2023/03/10 01:45:17;;;;;;;1.30;0.90;;;10.50;99.90;;;;;;4975163;28;20023;-75
2023/03/10 01:47:43;;;;;;;0.88;0.65;;;10.50;99.90;;;;;;4975501;28;20407;-75
2023/03/10 01:50:13;;;;;;;2.67;0.63;;;10.50;99.90;;;;;;4975135;28;20472;-75
2023/03/10 01:52:41;;;;;;;1.45;0.73;;;10.40;99.90;;;;;;4975952;28;20026;-75
2023/03/10 01:55:17;;;;;;;1.63;0.50;;;10.50;99.90;;;;;;4992463;28;20054;-75
2023/03/10 01:57:47;;;;;;;4.70;0.80;;;10.50;99.90;;;;;;4994858;28;20030;-75
2023/03/10 02:00:15;;;;;;;2.88;0.90;;;10.40;99.90;;;;;;4979000;28;20026;-75
2023/03/10 02:03:07;;;;;;;2.03;0.80;;;10.40;99.90;;;;;;4996924;28;20022;-75
2023/03/10 02:05:36;;;;;;;1.70;0.60;;;10.40;99.90;;;;;;4996785;28;20141;-74
2023/03/10 02:08:03;;;;;;;1.58;0.57;;;10.40;99.90;;;;;;4978323;28;20114;-80
2023/03/10 02:10:28;;;;;;;2.83;0.70;;;10.40;99.90;;;;;;4996235;28;20033;-74
2023/03/10 02:12:54;;;;;;;1.08;0.50;;;10.40;99.90;;;;;;4995937;28;20101;-74
2023/03/10 02:15:20;;;;;;;1.33;0.70;;;10.50;99.90;;;;;;4995724;28;20037;-75
2023/03/10 02:17:47;;;;;;;1.98;0.50;;;10.50;99.90;;;;;;4978650;28;20022;-74
2023/03/10 02:20:24;;;;;;;1.48;0.50;;;10.50;99.90;;;;;;4978025;28;20031;-74
2023/03/10 02:22:50;;;;;;;4.85;0.57;;;10.50;99.90;;;;;;4978576;28;20030;-74
2023/03/10 02:25:28;;;;;;;2.40;0.65;;;10.50;99.90;;;;;;4977978;28;20371;-74
2023/03/10 02:27:55;;;;;;;0.93;0.55;;;10.50;99.90;;;;;;4996042;28;20018;-75
2023/03/10 02:30:33;;;;;;;1.15;0.60;;;10.50;99.90;;;;;;4995653;28;20154;-75
2023/03/10 02:33:03;;;;;;;0.90;0.50;;;10.50;99.90;;;;;;4978973;28;20029;-75
2023/03/10 02:35:29;;;;;;;1.38;0.60;;;10.50;99.90;;;;;;4996386;28;20053;-75
2023/03/10 02:37:54;;;;;;;2.00;0.70;;;10.50;99.90;;;;;;4996005;28;20035;-75
2023/03/10 02:40:24;;;;;;;2.13;0.43;;;10.60;99.90;;;;;;4995384;28;20463;-76
2023/03/10 02:42:50;;;;;;;0.77;0.30;;;10.60;99.90;;;;;;4978460;28;20030;-75
2023/03/10 02:45:17;;;;;;;3.83;0.40;;;10.60;99.90;;;;;;4977984;28;20065;-75
2023/03/10 02:47:42;;;;;;;1.52;0.40;;;10.60;99.90;;;;;;4995823;28;20563;-75
2023/03/10 02:50:12;;;;;;;2.72;0.50;;;10.70;99.90;;;;;;4977584;28;20026;-75
2023/03/10 02:52:45;;;;;;;3.03;0.50;;;10.70;99.90;;;;;;4996059;28;20100;-75
2023/03/10 02:55:16;;;;;;;1.30;0.45;;;10.70;99.90;;;;;;4977426;28;20459;-75
2023/03/10 02:57:42;;;;;;;0.60;0.40;;;10.70;99.90;;;;;;4978268;28;20030;-75
2023/03/10 03:00:10;;;;;;;2.05;0.60;;;10.70;99.90;;;;;;4977234;28;20076;-75
2023/03/10 03:02:35;;;;;;;3.90;0.50;;;10.80;99.90;;;;;;4995335;28;20408;-75
2023/03/10 03:05:01;;;;;;;0.93;0.47;;;10.80;99.90;;;;;;4995846;28;20153;-75
2023/03/10 03:07:27;;;;;;;0.50;0.30;;;10.80;99.90;;;;;;4977487;28;20106;-75
2023/03/10 03:09:53;;;;;;;1.38;0.40;;;10.80;99.90;;;;;;4977512;28;20037;-75
2023/03/10 03:12:18;;;;;;;1.02;0.40;;;10.80;99.90;;;;;;4994660;28;20026;-75
2023/03/10 03:14:44;;;;;;;1.70;0.55;;;10.90;99.90;;;;;;4977972;28;20022;-75
2023/03/10 03:17:09;;;;;;;0.63;0.43;;;10.90;99.90;;;;;;4977362;28;20022;-75
2023/03/10 03:19:35;;;;;;;1.83;0.50;;;10.90;99.90;;;;;;4995102;28;20113;-75
2023/03/10 03:22:01;;;;;;;0.98;0.28;;;10.90;99.90;;;;;;4977836;28;20027;-75
2023/03/10 03:24:26;;;;;;;0.80;0.50;;;10.90;99.90;;;;;;4977097;28;20030;-75
2023/03/10 03:26:52;;;;;;;2.78;0.45;;;10.90;99.90;;;;;;4977487;28;20038;-75
2023/03/10 03:29:18;;;;;;;3.53;0.50;;;10.90;99.90;;;;;;4977009;28;20061;-75
2023/03/10 03:31:43;;;;;;;0.43;0.30;;;10.80;99.90;;;;;;4994877;28;20030;-75
2023/03/10 03:34:10;;;;;;;1.50;0.40;;;10.80;99.90;;;;;;4993998;28;20420;-76
2023/03/10 03:36:36;;;;;;;1.55;0.40;;;10.80;99.90;;;;;;4977569;28;20042;-75
2023/03/10 03:39:05;;;;;;;1.48;0.40;;;10.70;99.90;;;;;;4977038;28;20027;-75
2023/03/10 03:41:31;;;;;;;0.95;0.40;;;10.70;99.90;;;;;;4994280;28;20126;-76
2023/03/10 03:43:56;;;;;;;1.63;0.38;;;10.70;99.90;;;;;;4977508;28;20034;-76
2023/03/10 03:46:22;;;;;;;3.78;0.60;;;10.70;99.90;;;;;;4994776;28;20022;-76
2023/03/10 03:48:48;;;;;;;2.72;0.40;;;10.70;99.90;;;;;;4977057;28;20077;-76
2023/03/10 03:51:13;;;;;;;0.93;0.32;;;10.70;99.90;;;;;;4994476;28;20033;-76
2023/03/10 03:53:39;;;;;;;1.42;0.80;;;10.70;99.90;;;;;;4977201;28;20473;-76
2023/03/10 03:56:05;;;;;;;1.75;0.55;;;10.70;99.90;;;;;;4994654;28;20070;-76
2023/03/10 03:58:31;;;;;;;2.25;0.40;;;10.70;99.90;;;;;;4993796;28;20049;-75
2023/03/10 04:00:56;;;;;;;1.35;0.40;;;10.70;99.90;;;;;;4977071;28;20467;-75
2023/03/10 04:03:22;;;;;;;3.78;0.43;;;10.70;99.90;;;;;;4993717;28;20061;-75
2023/03/10 04:05:48;;;;;;;1.15;0.38;;;10.80;99.90;;;;;;4993714;28;20472;-75
2023/03/10 04:08:13;;;;;;;1.75;1.00;;;10.80;99.90;;;;;;4976137;28;20034;-76
2023/03/10 04:10:39;;;;;;;0.75;0.40;;;10.80;99.90;;;;;;4994183;28;20465;-76
2023/03/10 04:13:05;;;;;;;1.02;0.40;;;10.80;99.90;;;;;;4994101;28;20065;-75
2023/03/10 04:15:31;;;;;;;1.60;0.60;;;10.70;99.90;;;;;;4993574;28;20057;-75
2023/03/10 04:17:57;;;;;;;2.05;0.50;;;10.70;99.90;;;;;;4994048;28;20022;-76
2023/03/10 04:20:24;;;;;;;2.90;0.40;;;10.70;99.90;;;;;;4975361;28;20037;-76
2023/03/10 04:22:50;;;;;;;0.70;0.30;;;10.70;99.90;;;;;;4976596;28;20108;-76
2023/03/10 04:25:16;;;;;;;1.90;0.40;;;10.70;99.90;;;;;;4976127;28;20026;-76
2023/03/10 04:27:42;;;;;;;1.23;0.40;;;10.70;99.90;;;;;;4976552;28;20030;-76
2023/03/10 04:30:10;;;;;;;0.60;0.32;;;10.80;99.90;;;;;;4994023;28;20088;-75
2023/03/10 04:32:36;;;;;;;1.90;0.50;;;10.80;99.90;;;;;;4976113;28;20069;-76
2023/03/10 04:35:02;;;;;;;4.10;0.65;;;10.70;99.90;;;;;;4976549;28;20069;-76
2023/03/10 04:37:28;;;;;;;0.60;0.40;;;10.70;99.90;;;;;;4993132;28;20037;-75
2023/03/10 04:39:53;;;;;;;2.88;0.88;;;10.60;99.90;;;;;;4976399;28;20026;-76
2023/03/10 04:42:19;;;;;;;2.38;0.60;;;10.60;99.90;;;;;;4992919;28;20198;-75
2023/03/10 04:44:45;;;;;;;2.08;0.50;;;10.60;99.90;;;;;;4993492;28;20030;-75
2023/03/10 04:47:11;;;;;;;1.52;0.30;;;10.60;99.90;;;;;;4993222;28;20033;-82
2023/03/10 04:49:37;;;;;;;2.42;0.70;;;10.60;99.90;;;;;;4993353;28;20066;-74
2023/03/10 04:52:03;;;;;;;2.53;0.32;;;10.50;99.90;;;;;;4993656;28;20524;-76
2023/03/10 04:54:28;;;;;;;1.55;0.40;;;10.50;99.90;;;;;;4993235;28;20113;-74
2023/03/10 04:56:54;;;;;;;2.17;0.45;;;10.50;99.90;;;;;;4987708;28;20053;-75
2023/03/10 04:59:20;;;;;;;1.70;0.43;;;10.50;99.90;;;;;;4993184;28;20060;-75
2023/03/10 05:01:46;;;;;;;2.17;0.43;;;10.50;99.90;;;;;;4992145;28;20034;-75
2023/03/10 05:04:12;;;;;;;1.75;0.38;;;10.50;99.90;;;;;;4992029;28;20038;-79
2023/03/10 05:06:37;;;;;;;0.95;0.50;;;10.40;99.90;;;;;;4992304;28;20035;-75
2023/03/10 05:09:03;;;;;;;1.33;0.88;;;10.40;99.90;;;;;;4993443;28;20066;-76
2023/03/10 05:11:30;;;;;;;3.90;0.52;;;10.40;99.90;;;;;;4991789;28;20456;-76
2023/03/10 05:13:56;;;;;;;0.80;0.40;;;10.40;99.90;;;;;;4992190;28;20049;-75
2023/03/10 05:16:22;;;;;;;1.58;0.50;;;10.40;99.90;;;;;;4991227;28;20387;-75
2023/03/10 05:18:48;;;;;;;3.97;0.73;;;10.40;99.90;;;;;;4993363;28;20031;-76
2023/03/10 05:21:14;;;;;;;0.85;0.65;;;10.40;99.90;;;;;;4992852;28;20037;-78
2023/03/10 05:23:40;;;;;;;3.08;0.55;;;10.40;99.90;;;;;;4992371;28;20026;-76
2023/03/10 05:26:07;;;;;;;2.20;0.75;;;10.40;99.90;;;;;;4993161;28;20029;-77
2023/03/10 05:28:33;;;;;;;2.05;0.65;;;10.40;99.90;;;;;;4992332;28;20029;-76
2023/03/10 05:30:58;;;;;;;1.33;0.50;;;10.50;99.90;;;;;;4993233;28;20022;-75
2023/03/10 05:33:24;;;;;;;4.20;0.65;;;10.50;99.90;;;;;;4994201;28;20030;-75
2023/03/10 05:35:50;;;;;;;1.85;0.50;;;10.50;99.90;;;;;;4995447;28;20399;-75
2023/03/10 05:38:15;;;;;;;1.27;0.45;;;10.50;99.90;;;;;;4995263;28;20034;-75
2023/03/10 05:40:43;;;;;;;3.22;0.60;;;10.50;99.90;;;;;;4995504;28;20030;-75
2023/03/10 05:43:09;;;;;;;2.63;0.55;;;10.60;99.90;;;;;;4996772;28;20019;-73
2023/03/10 05:45:35;;;;;;;2.08;0.40;;;10.50;99.90;;;;;;4996488;28;20109;-74
2023/03/10 05:48:01;;;;;;;3.25;0.68;;;10.60;99.90;;;;;;4995416;28;20125;-74
2023/03/10 05:50:27;;;;;;;1.70;0.50;;;10.60;99.90;;;;;;4988618;28;20043;-74
2023/03/10 05:52:52;;;;;;;2.35;0.65;;;10.60;99.90;;;;;;4977178;28;20027;-74
2023/03/10 05:55:19;;;;;;;2.45;1.20;;;10.60;99.90;;;;;;4976626;28;20424;-75
2023/03/10 05:57:46;;;;;;;2.88;0.57;;;10.60;99.90;;;;;;4959585;28;20022;-74
2023/03/10 06:00:13;;;;;;;3.53;0.50;;;10.70;99.90;;;;;;4959879;28;20034;-74
2023/03/10 06:02:39;;;;;;;2.53;0.70;;;10.70;99.90;;;;;;4959096;28;20038;-74
2023/03/10 06:05:07;;;;;;;2.95;0.50;;;10.70;99.90;;;;;;4976585;28;20045;-74
2023/03/10 06:07:33;;;;;;;2.83;0.52;;;10.80;99.90;;;;;;4976396;28;20050;-76
2023/03/10 06:09:59;;;;;;;1.70;0.40;;;10.80;99.90;;;;;;4976894;28;20483;-74
2023/03/10 06:12:25;;;;;;;6.40;0.70;;;10.80;99.90;;;;;;4976023;28;20026;-75
2023/03/10 06:14:51;;;;;;;1.85;0.50;;;10.80;99.90;;;;;;4959484;28;20472;-75
2023/03/10 06:17:16;;;;;;;2.97;0.60;;;10.80;99.90;;;;;;4976317;28;20062;-80
2023/03/10 06:19:42;;;;;;;2.63;0.70;;;10.90;99.90;;;;;;4959327;28;20058;-75
2023/03/10 06:22:08;;;;;;;1.85;0.40;;;10.80;99.90;;;;;;4976552;28;20041;-75
2023/03/10 06:24:34;;;;;;;1.55;0.52;;;10.80;99.90;;;;;;4975780;28;20030;-75
2023/03/10 06:26:59;;;;;;;2.95;1.02;;;10.70;99.90;;;;;;4959208;28;20512;-75
2023/03/10 06:29:25;;;;;;;1.17;0.57;;;10.80;99.90;;;;;;4975986;28;20468;-75
2023/03/10 06:31:50;;;;;;;1.10;0.50;;;10.70;99.90;;;;;;4976489;28;20085;-74
2023/03/10 06:34:16;;;;;;;4.75;0.70;;;10.70;99.90;;;;;;4958912;28;20054;-75
2023/03/10 06:36:42;;;;;;;2.20;0.55;;;10.60;99.90;;;;;;4958464;28;20423;-74
2023/03/10 06:39:08;;;;;;;1.25;0.40;;;10.60;99.90;;;;;;4976091;28;20073;-74
2023/03/10 06:41:37;;;;;;;0.40;0.30;;;10.50;99.90;;;;;;4958289;28;20038;-74
2023/03/10 06:44:02;;;;;;;1.15;0.40;;;10.50;99.90;;;;;;4957713;28;20034;-74
2023/03/10 06:46:29;;;;;;;3.80;1.25;;;10.50;99.90;;;;;;4975696;28;20387;-75
2023/03/10 06:48:55;;;;;;;1.25;0.50;;;10.50;99.90;;;;;;4976003;28;20070;-75
2023/03/10 06:51:21;;;;;;;3.42;0.40;;;10.50;99.90;;;;;;4958236;28;20026;-75
2023/03/10 06:53:51;;;;;;;1.27;0.50;;;10.50;99.90;;;;;;4958887;28;20026;-74
2023/03/10 06:56:20;;;;;;;2.35;0.70;;;10.50;99.90;;;;;;4975880;28;20369;-73
2023/03/10 06:58:46;;;;;;;2.75;0.55;;;10.60;99.90;;;;;;4976021;28;20030;-73
2023/03/10 07:01:30;;;;;;;1.13;0.30;;;10.70;99.90;;;;;;4958281;28;20034;-74
2023/03/10 07:03:56;;;;;;;2.58;0.38;;;10.70;99.90;;;;;;4958189;28;20435;-74
2023/03/10 07:06:23;;;;;;;3.53;0.40;;;10.80;99.90;;;;;;4957973;28;20027;-75
2023/03/10 07:08:50;;;;;;;4.97;0.45;;;10.80;99.90;;;;;;4957952;28;20082;-75
2023/03/10 07:11:15;;;;;;;2.13;0.30;;;10.90;99.90;;;;;;4958368;28;20073;-74
2023/03/10 07:13:41;;;;;;;3.55;0.30;;;11.00;99.90;;;;;;4957754;28;20672;-75
2023/03/10 07:16:07;;;;;;;1.48;0.52;;;11.10;99.90;;;;;;4958246;28;20022;-75
2023/03/10 07:18:33;;;;;;;1.17;0.30;;;11.20;99.90;;;;;;4957771;28;20375;-74
2023/03/10 07:20:58;;;;;;;0.68;0.35;;;11.20;99.90;;;;;;4958367;28;20030;-75
2023/03/10 07:23:24;;;;;;;0.98;0.38;;;11.20;99.90;;;;;;4957890;28;20471;-76
2023/03/10 07:25:52;;;;;;;3.17;0.50;;;11.10;99.90;;;;;;4975806;28;20052;-76
2023/03/10 07:28:17;;;;;;;0.55;0.40;;;11.10;99.90;;;;;;4975941;28;20085;-76
2023/03/10 07:30:43;;;;;;;0.93;0.40;;;11.00;99.90;;;;;;4963961;28;20018;-75
2023/03/10 07:33:09;;;;;;;1.48;0.40;;;10.90;99.90;;;;;;4977967;28;20363;-75
2023/03/10 07:35:35;;;;;;;1.98;0.40;;;10.80;99.90;;;;;;4976734;28;20113;-75
2023/03/10 07:38:01;;;;;;;1.92;0.50;;;10.70;99.90;;;;;;4977279;28;20041;-75
2023/03/10 07:40:27;;;;;;;1.02;0.40;;;10.50;99.90;;;;;;4970747;28;20035;-75
2023/03/10 07:42:53;;;;;;;0.55;0.32;;;10.40;99.90;;;;;;4961124;28;20023;-74
2023/03/10 07:45:19;;;;;;;2.28;0.20;;;10.20;99.90;;;;;;4972667;28;20356;-74
2023/03/10 07:47:45;;;;;;;0.93;0.20;;;9.90;99.90;;;;;;4970528;28;20419;-74
2023/03/10 07:50:11;;;;;;;3.15;0.30;;;9.70;99.90;;;;;;4993342;28;20022;-74
2023/03/10 07:52:37;;;;;;;1.48;0.40;;;9.70;99.90;;;;;;4992983;28;20022;-74
2023/03/10 07:55:03;;;;;;;1.15;0.38;;;9.70;99.90;;;;;;4976087;28;20030;-73
2023/03/10 07:57:28;;;;;;;3.55;0.80;;;9.60;99.90;;;;;;4990752;28;20062;-75
2023/03/10 07:59:54;;;;;;;4.22;0.63;;;9.70;99.90;;;;;;4965598;28;20034;-76
2023/03/10 08:02:20;;;;;;;4.13;0.60;;;9.60;99.90;;;;;;4974470;28;20085;-74
2023/03/10 08:04:45;;;;;;;4.43;0.95;;;9.60;99.90;;;;;;4975652;28;20029;-74
2023/03/10 08:07:11;;;;;;;6.13;1.10;;;9.60;99.90;;;;;;4969468;28;20031;-74
2023/03/10 08:09:36;;;;;;;2.88;1.00;;;9.70;99.90;;;;;;4974713;28;20030;-74
2023/03/10 08:12:03;;;;;;;2.85;0.57;;;9.70;99.90;;;;;;4988030;28;20386;-74
2023/03/10 08:14:30;;;;;;;4.40;0.52;;;9.80;99.90;;;;;;4991332;28;20456;-75
2023/03/10 08:16:56;;;;;;;5.13;0.63;;;9.70;99.90;;;;;;4969119;28;20026;-75
2023/03/10 08:19:23;;;;;;;5.35;1.00;;;9.70;99.90;;;;;;4975723;28;20030;-74
2023/03/10 08:21:49;;;;;;;4.53;0.80;;;9.70;99.90;;;;;;4965375;28;20038;-74
2023/03/10 08:24:15;;;;;;;5.07;0.80;;;9.70;99.90;;;;;;4972325;28;20022;-74
2023/03/10 08:26:40;;;;;;;5.35;1.10;;;9.80;99.90;;;;;;4974526;28;20034;-74
2023/03/10 08:29:06;;;;;;;6.35;1.02;;;9.80;99.90;;;;;;4993003;28;20064;-74
2023/03/10 08:31:32;;;;;;;6.88;1.10;;;9.80;99.90;;;;;;4972739;28;20022;-75
2023/03/10 08:33:58;;;;;;;8.60;1.23;;;9.80;99.90;;;;;;4975691;28;20053;-74
2023/03/10 08:36:27;;;;;;;3.97;1.10;;;9.80;99.90;;;;;;4985012;28;20089;-75
2023/03/10 08:38:54;;;;;;;3.47;1.10;;;9.80;99.90;;;;;;4992931;28;20026;-74
2023/03/10 08:41:32;;;;;;;6.57;1.30;;;9.80;99.90;;;;;;4975723;28;20065;-73
2023/03/10 08:43:59;;;;;;;6.57;1.00;;;9.90;99.90;;;;;;4986420;28;20014;-74
2023/03/10 08:46:27;;;;;;;8.15;1.38;;;9.90;99.90;;;;;;4992428;28;20161;-81
2023/03/10 08:48:54;;;;;;;5.78;0.93;;;9.90;99.90;;;;;;4985424;28;20105;-75
2023/03/10 08:51:20;;;;;;;5.70;0.93;;;9.90;99.90;;;;;;4976060;28;20019;-75
2023/03/10 08:53:47;;;;;;;6.85;1.25;;;10.00;99.90;;;;;;4984732;28;20029;-75
2023/03/10 08:56:15;;;;;;;3.92;1.35;;;10.00;99.90;;;;;;4977040;28;20046;-75
2023/03/10 08:58:40;;;;;;;3.88;1.23;;;10.00;99.90;;;;;;4989635;28;20109;-76
2023/03/10 09:01:06;;;;;;;6.00;1.10;;;10.10;99.90;;;;;;4993061;28;20105;-74
2023/03/10 09:03:35;;;;;;;5.53;0.80;;;10.10;99.90;;;;;;4981957;28;20077;-75
2023/03/10 09:06:01;;;;;;;5.93;1.10;;;10.00;99.90;;;;;;4983575;28;20406;-74
2023/03/10 09:08:26;;;;;;;3.30;0.85;;;10.00;99.90;;;;;;4990725;28;20034;-76
2023/03/10 09:10:52;;;;;;;5.47;0.88;;;10.10;99.90;;;;;;4986587;28;20026;-73
2023/03/10 09:13:17;;;;;;;7.45;1.00;;;10.00;99.90;;;;;;4995927;28;20105;-73
2023/03/10 09:15:43;;;;;;;5.75;1.05;;;10.00;99.90;;;;;;4988882;28;20356;-75
2023/03/10 09:18:11;;;;;;;6.82;1.05;;;10.00;99.90;;;;;;4996408;28;20022;-74
2023/03/10 09:20:38;;;;;;;4.10;0.80;;;10.00;99.90;;;;;;4996641;28;20470;-73
2023/03/10 09:23:05;;;;;;;6.05;0.88;;;10.00;99.90;;;;;;4993299;28;20174;-74
2023/03/10 09:25:31;;;;;;;6.63;0.90;;;10.10;99.90;;;;;;4983232;28;20065;-75
2023/03/10 09:27:56;;;;;;;2.33;0.80;;;10.10;99.90;;;;;;4990497;28;20035;-76
2023/03/10 09:30:22;;;;;;;2.78;0.70;;;10.10;99.90;;;;;;4989236;28;20101;-75
2023/03/10 09:32:48;;;;;;;4.68;1.05;;;10.10;99.90;;;;;;4979124;28;20023;-75
2023/03/10 09:35:13;;;;;;;4.07;0.85;;;10.10;99.90;;;;;;4986633;28;20026;-74
2023/03/10 09:37:39;;;;;;;4.57;0.65;;;10.10;99.90;;;;;;4995495;28;20542;-75
2023/03/10 09:40:08;;;;;;;4.15;0.85;;;10.30;99.90;;;;;;4992742;28;20030;-74
2023/03/10 09:42:45;;;;;;;5.43;0.95;;;10.30;99.90;;;;;;4993736;28;20037;-75
2023/03/10 09:45:21;;;;;;;7.32;1.05;;;10.20;99.90;;;;;;4992291;28;20025;-74
2023/03/10 09:48:20;;;;;;;4.30;0.80;;;10.30;99.90;;;;;;4987997;28;20137;-75
2023/03/10 09:50:51;;;;;;;2.95;0.75;;;10.40;99.90;;;;;;4981445;28;20030;-75
2023/03/10 09:53:31;;;;;;;6.27;0.90;;;10.30;99.90;;;;;;4984087;28;20034;-74
2023/03/10 09:55:57;;;;;;;3.65;0.85;;;10.30;99.90;;;;;;4988133;28;20538;-75
2023/03/10 09:58:44;;;;;;;4.97;0.80;;;10.30;99.90;;;;;;4970768;28;20027;-74
2023/03/10 10:01:22;;;;;;;5.63;0.98;;;10.40;99.90;;;;;;4968768;28;20516;-75
2023/03/10 10:04:19;;;;;;;4.75;1.00;;;10.50;99.90;;;;;;4972545;28;20022;-76
2023/03/10 10:06:46;;;;;;;2.83;0.70;;;10.50;99.90;;;;;;4986213;28;20023;-75
2023/03/10 10:09:29;;;;;;;5.43;1.13;;;10.50;99.90;;;;;;4968397;28;20026;-74
2023/03/10 10:11:55;;;;;;;5.15;1.02;;;10.60;99.90;;;;;;4977293;28;20547;-74
2023/03/10 10:14:23;;;;;;;1.08;0.60;;;10.70;99.90;;;;;;4969696;28;20042;-74
2023/03/10 10:17:10;;;;;;;3.15;0.80;;;10.60;99.90;;;;;;4976283;28;20026;-73
2023/03/10 10:19:38;;;;;;;2.63;0.88;;;10.50;99.90;;;;;;4971949;28;20030;-74
2023/03/10 10:22:25;;;;;;;2.67;0.60;;;10.50;99.90;;;;;;4964486;28;20026;-74
2023/03/10 10:25:16;;;;;;;2.35;0.50;;;10.40;99.90;;;;;;4981290;28;20097;-74
2023/03/10 10:27:44;;;;;;;2.97;0.50;;;10.30;99.90;;;;;;4978592;28;20042;-74
2023/03/10 10:30:26;;;;;;;4.57;0.55;;;10.00;99.90;;;;;;4985329;28;20023;-73
2023/03/10 10:33:01;;;;;;;1.73;0.32;;;9.80;99.90;;;;;;4977935;28;20026;-74
2023/03/10 10:35:30;;;;;;;2.25;0.50;;;9.70;99.90;;;;;;4968882;28;20023;-74
2023/03/10 10:38:10;;;;;;;3.20;0.38;;;9.60;99.90;;;;;;4970121;28;20022;-73
2023/03/10 10:40:48;;;;;;;1.35;0.35;;;9.60;99.90;;;;;;4993406;28;20495;-74
2023/03/10 10:43:19;;;;;;;1.77;0.70;;;9.60;99.90;;;;;;4965996;28;20057;-74
2023/03/10 10:46:05;;;;;;;3.53;0.40;;;9.80;99.90;;;;;;4993213;28;20281;-75
2023/03/10 10:48:47;;;;;;;1.95;0.50;;;9.90;99.90;;;;;;4983886;28;20041;-75
2023/03/10 10:51:28;;;;;;;2.58;0.45;;;9.90;99.90;;;;;;4983231;28;20022;-76
2023/03/10 10:54:03;;;;;;;3.90;0.82;;;10.00;99.90;;;;;;4990700;28;20034;-74
2023/03/10 10:56:29;;;;;;;2.75;0.70;;;10.10;99.90;;;;;;4985549;28;20046;-76
2023/03/10 10:59:05;;;;;;;2.97;0.60;;;10.10;99.90;;;;;;4983729;28;20031;-75
2023/03/10 11:01:54;;;;;;;2.30;0.70;;;10.20;99.90;;;;;;4982036;28;20041;-73
2023/03/10 11:04:22;;;;;;;3.85;1.00;;;10.30;99.90;;;;;;4982702;28;20033;-75
2023/03/10 11:06:48;;;;;;;7.22;1.27;;;10.40;99.90;;;;;;4993427;28;20030;-74
2023/03/10 11:09:17;;;;;;;2.85;0.90;;;10.50;99.90;;;;;;4984859;28;20053;-75
2023/03/10 11:11:48;;;;;;;3.42;0.90;;;10.50;99.90;;;;;;4989689;28;20041;-74
2023/03/10 11:14:35;;;;;;;3.33;0.70;;;10.60;99.90;;;;;;4988690;28;20062;-74
2023/03/10 11:17:26;;;;;;;5.18;0.88;;;10.70;99.90;;;;;;4984407;28;20102;-74
2023/03/10 11:20:00;;;;;;;5.65;0.93;;;10.70;99.90;;;;;;4986741;28;20463;-74
2023/03/10 11:22:31;;;;;;;4.60;0.68;;;10.70;99.90;;;;;;4981217;28;20031;-76
2023/03/10 11:25:05;;;;;;;1.20;0.52;;;10.70;99.90;;;;;;4986411;28;20026;-75
2023/03/10 11:27:56;;;;;;;2.42;0.60;;;10.70;99.90;;;;;;4984142;28;20030;-76
2023/03/10 11:30:33;;;;;;;2.97;0.70;;;10.80;99.90;;;;;;4979167;28;20057;-75
2023/03/10 11:33:19;;;;;;;2.80;0.73;;;10.90;99.90;;;;;;4974974;28;20034;-74
2023/03/10 11:35:56;;;;;;;2.60;0.95;;;10.90;99.90;;;;;;4988277;28;20069;-75
2023/03/10 11:38:41;;;;;;;3.90;0.93;;;10.80;99.90;;;;;;4986508;28;20468;-76
2023/03/10 11:41:13;;;;;;;2.03;0.55;;;10.70;99.90;;;;;;4985375;28;20034;-74
2023/03/10 11:44:06;;;;;;;3.60;0.73;;;10.60;99.90;;;;;;4981232;28;20026;-75
2023/03/10 11:46:36;;;;;;;1.98;0.85;;;10.60;99.90;;;;;;4977601;28;20121;-73
2023/03/10 11:49:11;;;;;;;3.78;0.88;;;10.60;99.90;;;;;;4977896;28;20073;-74
2023/03/10 11:51:46;;;;;;;2.30;0.80;;;10.50;99.90;;;;;;4976899;28;20034;-75
2023/03/10 11:54:42;;;;;;;2.90;0.63;;;10.50;99.90;;;;;;4987146;28;20486;-73
2023/03/10 11:57:20;;;;;;;2.15;0.82;;;10.60;99.90;;;;;;4973236;28;20042;-72
2023/03/10 11:59:54;;;;;;;1.92;0.63;;;10.70;99.90;;;;;;4982276;28;20035;-74
2023/03/10 12:02:40;;;;;;;2.25;0.82;;;10.60;99.90;;;;;;4981952;28;20484;-74
2023/03/10 12:05:19;;;;;;;5.68;0.65;;;10.60;99.90;;;;;;4983251;28;20042;-74
2023/03/10 12:07:48;;;;;;;2.05;0.43;;;10.60;99.90;;;;;;4983862;28;20036;-74
2023/03/10 12:10:17;;;;;;;1.55;0.57;;;10.50;99.90;;;;;;4981878;28;20033;-73
2023/03/10 12:12:48;;;;;;;2.25;0.40;;;10.60;99.90;;;;;;4980424;28;20046;-74
2023/03/10 12:15:22;;;;;;;2.45;0.60;;;10.60;99.90;;;;;;4991120;28;20479;-75
2023/03/10 12:17:49;;;;;;;1.00;0.40;;;10.60;99.90;;;;;;4979727;28;20116;-76
2023/03/10 12:20:17;;;;;;;3.72;0.60;;;10.60;99.90;;;;;;4983177;28;20030;-79
2023/03/10 12:22:45;;;;;;;1.77;0.40;;;10.60;99.90;;;;;;4979846;28;20209;-76
2023/03/10 12:25:31;;;;;;;2.50;0.28;;;10.60;99.90;;;;;;4991966;28;20027;-75
2023/03/10 12:28:11;;;;;;;0.90;0.40;;;10.50;99.90;;;;;;4982647;28;20447;-75
2023/03/10 12:31:05;;;;;;;1.38;0.50;;;10.50;99.90;;;;;;4991515;28;20030;-74
2023/03/10 12:33:36;;;;;;;0.88;0.20;;;10.50;99.90;;;;;;4984603;28;20153;-75
2023/03/10 12:36:06;;;;;;;1.00;0.50;;;10.40;99.90;;;;;;4984595;28;20080;-74
2023/03/10 12:38:45;;;;;;;2.40;0.45;;;10.40;99.90;;;;;;4985041;28;20034;-74
2023/03/10 12:41:13;;;;;;;0.30;0.30;;;10.40;99.90;;;;;;4980339;28;20030;-76
2023/03/10 12:43:55;;;;;;;2.05;0.38;;;10.30;99.90;;;;;;4982916;28;20035;-76
2023/03/10 12:46:27;;;;;;;0.90;0.22;;;10.10;99.90;;;;;;4984459;28;20034;-79
2023/03/10 12:49:01;;;;;;;;;;;10.10;99.90;;;;;;4985047;28;20053;-75
2023/03/10 12:51:34;;;;;;;0.43;0.10;;;10.00;99.90;;;;;;4983512;28;20004;-77
2023/03/10 12:54:37;;;;;;;2.58;0.45;;;10.00;99.90;;;;;;4985037;28;20095;-77
2023/03/10 12:57:25;;;;;;;2.53;0.40;;;10.00;99.90;;;;;;4987041;28;20049;-77
2023/03/10 13:00:23;;;;;;;1.85;0.32;;;10.00;99.90;;;;;;4973200;28;20026;-76